Wetterstation Vordersexau
Wetterdaten: Woche 08.08.16 - 14.08.16 (KW32)
Datum Zeit Temp. A. Feuchte A. Luftdruck Regen Wind Richtung Taupunkt Windchill Windben
08.08.2016 00:00 15,6 C 81 % 1021,3 hPa 0,0 l/m 0,0 km/h SO 12,3 C 15,6 C 0,0 km/h
08.08.2016 01:00 14,9 C 82 % 1021,1 hPa 0,0 l/m 0,0 km/h O-NO 11,9 C 14,9 C 0,0 km/h
08.08.2016 02:00 14,1 C 83 % 1021,0 hPa 0,0 l/m 0,0 km/h O-NO 11,3 C 14,1 C 0,0 km/h
08.08.2016 03:00 13,4 C 83 % 1020,6 hPa 0,0 l/m 0,0 km/h O-SO 10,6 C 13,4 C 0,0 km/h
08.08.2016 04:00 13,2 C 84 % 1019,9 hPa 0,0 l/m 0,0 km/h O-SO 10,6 C 13,2 C 0,0 km/h
08.08.2016 05:00 12,8 C 84 % 1020,2 hPa 0,0 l/m 0,0 km/h O-SO 10,2 C 12,8 C 0,0 km/h
08.08.2016 06:00 13,6 C 83 % 1020,2 hPa 0,0 l/m 0,0 km/h SO 10,8 C 13,6 C 0,0 km/h
08.08.2016 07:00 19,6 C 83 % 1019,8 hPa 0,0 l/m 0,0 km/h O-NO 16,6 C 19,6 C 0,0 km/h
08.08.2016 08:00 26,0 C 63 % 1019,8 hPa 0,0 l/m 0,0 km/h W-SW 18,4 C 26,0 C 0,0 km/h
08.08.2016 09:00 28,5 C 49 % 1019,7 hPa 0,0 l/m 0,0 km/h SO 16,7 C 28,5 C 0,0 km/h
08.08.2016 10:00 29,9 C 48 % 1019,5 hPa 0,0 l/m 0,0 km/h W 17,7 C 29,9 C 0,0 km/h
08.08.2016 11:00 29,0 C 49 % 1018,8 hPa 0,0 l/m 5,8 km/h W 17,2 C 29,0 C 3,2 km/h
08.08.2016 12:00 30,6 C 43 % 1018,7 hPa 0,0 l/m 2,6 km/h S 16,6 C 30,6 C 1,4 km/h
08.08.2016 13:00 31,3 C 43 % 1018,3 hPa 0,0 l/m 0,0 km/h W 17,2 C 31,3 C 0,0 km/h
08.08.2016 14:00 30,8 C 43 % 1018,1 hPa 0,0 l/m 0,0 km/h W 16,7 C 30,8 C 0,0 km/h
08.08.2016 15:00 29,6 C 46 % 1017,4 hPa 0,0 l/m 0,0 km/h N-NO 16,7 C 29,6 C 0,0 km/h
08.08.2016 16:00 31,6 C 43 % 1016,9 hPa 0,0 l/m 0,0 km/h NW 17,5 C 31,6 C 0,0 km/h
08.08.2016 17:00 31,3 C 42 % 1016,7 hPa 0,0 l/m 7,8 km/h N 16,8 C 31,2 C 4,3 km/h
08.08.2016 18:00 29,4 C 50 % 1016,9 hPa 0,0 l/m 0,0 km/h N-NO 17,9 C 29,4 C 0,0 km/h
08.08.2016 19:00 24,1 C 61 % 1017,3 hPa 0,0 l/m 0,0 km/h N-NO 16,1 C 24,1 C 0,0 km/h
08.08.2016 20:00 22,1 C 65 % 1017,8 hPa 0,0 l/m 0,0 km/h NO 15,2 C 22,1 C 0,0 km/h
08.08.2016 21:00 21,0 C 67 % 1018,3 hPa 0,0 l/m 0,0 km/h N 14,6 C 21,0 C 0,0 km/h
08.08.2016 22:00 20,4 C 67 % 1018,6 hPa 0,0 l/m 0,0 km/h N 14,1 C 20,4 C 0,0 km/h
08.08.2016 23:00 17,9 C 70 % 1018,4 hPa 0,0 l/m 0,0 km/h NW 12,3 C 17,9 C 0,0 km/h
09.08.2016 00:00 17,9 C 75 % 1018,7 hPa 0,0 l/m 0,0 km/h NW 13,4 C 17,9 C 0,0 km/h
09.08.2016 01:00 18,3 C 71 % 1018,6 hPa 0,0 l/m 0,0 km/h N 12,9 C 18,3 C 0,0 km/h
09.08.2016 02:00 18,0 C 73 % 1018,1 hPa 0,0 l/m 0,0 km/h N 13,1 C 18,0 C 0,0 km/h
09.08.2016 03:00 16,9 C 74 % 1018,0 hPa 0,0 l/m 0,0 km/h NO 12,2 C 16,9 C 0,0 km/h
09.08.2016 04:00 15,9 C 80 % 1017,9 hPa 0,0 l/m 0,0 km/h O 12,5 C 15,9 C 0,0 km/h
09.08.2016 05:00 15,8 C 82 % 1017,9 hPa 0,0 l/m 0,0 km/h O-NO 12,7 C 15,8 C 0,0 km/h
09.08.2016 06:00 15,9 C 82 % 1018,1 hPa 0,0 l/m 0,0 km/h NO 12,8 C 15,9 C 0,0 km/h
09.08.2016 07:00 16,2 C 83 % 1018,3 hPa 0,0 l/m 0,0 km/h O 13,3 C 16,2 C 0,0 km/h
09.08.2016 08:00 16,3 C 82 % 1018,9 hPa 0,0 l/m 0,0 km/h SO 13,2 C 16,3 C 0,0 km/h
09.08.2016 09:00 16,7 C 82 % 1019,4 hPa 0,0 l/m 0,0 km/h SO 13,6 C 16,7 C 0,0 km/h
09.08.2016 10:00 17,6 C 81 % 1019,3 hPa 0,5 l/m 0,0 km/h SO 14,3 C 17,6 C 0,0 km/h
09.08.2016 11:00 17,9 C 79 % 1019,5 hPa 0,0 l/m 0,0 km/h S-SO 14,2 C 17,9 C 0,0 km/h
09.08.2016 12:00 21,1 C 72 % 1019,1 hPa 0,0 l/m 0,0 km/h S 15,8 C 21,1 C 0,0 km/h
09.08.2016 13:00 19,4 C 71 % 1019,2 hPa 0,0 l/m 3,9 km/h SO 14,0 C 19,4 C 2,2 km/h
09.08.2016 14:00 18,8 C 73 % 1018,9 hPa 0,0 l/m 13,0 km/h W-SW 13,9 C 16,3 C 7,2 km/h
09.08.2016 15:00 23,2 C 60 % 1018,5 hPa 0,0 l/m 1,3 km/h S 15,0 C 23,2 C 0,7 km/h
09.08.2016 16:00 26,8 C 46 % 1018,1 hPa 0,0 l/m 3,9 km/h SO 14,2 C 26,8 C 2,2 km/h
09.08.2016 17:00 29,9 C 40 % 1017,7 hPa 0,0 l/m 0,0 km/h S-SW 14,8 C 29,9 C 0,0 km/h
09.08.2016 18:00 27,9 C 41 % 1017,6 hPa 0,0 l/m 1,9 km/h W 13,4 C 27,9 C 1,1 km/h
09.08.2016 19:00 20,2 C 54 % 1017,5 hPa 0,0 l/m 0,0 km/h W 10,6 C 20,2 C 0,0 km/h
09.08.2016 20:00 15,8 C 69 % 1017,8 hPa 0,0 l/m 0,0 km/h N 10,1 C 15,8 C 0,0 km/h
09.08.2016 21:00 14,5 C 77 % 1018,1 hPa 0,0 l/m 0,0 km/h O-SO 10,5 C 14,5 C 0,0 km/h
09.08.2016 22:00 13,9 C 82 % 1018,2 hPa 1,0 l/m 0,0 km/h O-NO 10,9 C 13,9 C 0,0 km/h
09.08.2016 23:00 13,6 C 82 % 1018,2 hPa 0,0 l/m 0,0 km/h O-NO 10,6 C 13,6 C 0,0 km/h
10.08.2016 00:00 13,4 C 83 % 1018,1 hPa 0,0 l/m 0,0 km/h O-NO 10,6 C 13,4 C 0,0 km/h
10.08.2016 01:00 13,4 C 84 % 1017,9 hPa 0,0 l/m 0,0 km/h O-NO 10,8 C 13,4 C 0,0 km/h
10.08.2016 02:00 13,1 C 84 % 1017,7 hPa 0,0 l/m 0,0 km/h O-NO 10,5 C 13,1 C 0,0 km/h
10.08.2016 03:00 12,3 C 84 % 1017,4 hPa 0,0 l/m 0,0 km/h O-NO 9,7 C 12,3 C 0,0 km/h
10.08.2016 04:00 12,1 C 84 % 1017,4 hPa 0,0 l/m 0,0 km/h O-NO 9,5 C 12,1 C 0,0 km/h
10.08.2016 05:00 12,0 C 84 % 1017,7 hPa 0,0 l/m 0,0 km/h O-NO 9,4 C 12,0 C 0,0 km/h
10.08.2016 06:00 10,5 C 84 % 1018,1 hPa 0,0 l/m 0,0 km/h O-SO 7,9 C 10,5 C 0,0 km/h
10.08.2016 07:00 13,0 C 76 % 1018,4 hPa 0,0 l/m 0,0 km/h N 8,9 C 13,0 C 0,0 km/h
10.08.2016 08:00 14,3 C 83 % 1019,0 hPa 0,0 l/m 4,5 km/h O-NO 11,5 C 14,3 C 2,5 km/h
10.08.2016 09:00 20,4 C 72 % 1018,8 hPa 0,0 l/m 0,0 km/h W 15,2 C 20,4 C 0,0 km/h
10.08.2016 10:00 20,6 C 56 % 1018,7 hPa 0,0 l/m 1,9 km/h W-NW 11,5 C 20,6 C 1,1 km/h
10.08.2016 11:00 20,1 C 54 % 1018,9 hPa 0,0 l/m 0,0 km/h SW 10,5 C 20,1 C 0,0 km/h
10.08.2016 12:00 21,9 C 50 % 1018,4 hPa 0,0 l/m 8,4 km/h N-NO 11,0 C 21,2 C 4,7 km/h
10.08.2016 13:00 19,9 C 52 % 1018,4 hPa 0,0 l/m 0,0 km/h N 9,7 C 19,9 C 0,0 km/h
10.08.2016 14:00 20,3 C 46 % 1018,3 hPa 0,0 l/m 0,0 km/h N-NO 8,3 C 20,3 C 0,0 km/h
10.08.2016 15:00 22,4 C 42 % 1018,3 hPa 0,0 l/m 11,0 km/h N-NO 8,9 C 21,0 C 6,1 km/h
10.08.2016 16:00 22,3 C 40 % 1018,3 hPa 0,0 l/m 5,8 km/h W-NW 8,0 C 22,3 C 3,2 km/h
10.08.2016 17:00 25,1 C 36 % 1018,2 hPa 0,0 l/m 0,0 km/h N-NO 9,0 C 25,1 C 0,0 km/h
10.08.2016 18:00 21,2 C 43 % 1018,6 hPa 0,0 l/m 7,1 km/h N-NO 8,1 C 20,9 C 4,0 km/h
10.08.2016 19:00 14,5 C 62 % 1020,4 hPa 0,0 l/m 0,0 km/h SO 7,3 C 14,5 C 0,0 km/h
10.08.2016 20:00 11,8 C 78 % 1020,9 hPa 2,1 l/m 2,6 km/h SO 8,1 C 11,8 C 1,4 km/h
10.08.2016 21:00 11,3 C 81 % 1021,1 hPa 0,5 l/m 0,0 km/h N-NO 8,2 C 11,3 C 0,0 km/h
10.08.2016 22:00 11,3 C 83 % 1021,3 hPa 0,0 l/m 0,0 km/h N-NO 8,5 C 11,3 C 0,0 km/h
10.08.2016 23:00 10,7 C 83 % 1021,4 hPa 0,0 l/m 0,0 km/h N-NO 7,9 C 10,7 C 0,0 km/h
11.08.2016 00:00 9,3 C 84 % 1021,3 hPa 0,0 l/m 0,0 km/h N-NO 6,7 C 9,3 C 0,0 km/h
11.08.2016 01:00 8,4 C 84 % 1021,5 hPa 0,0 l/m 0,0 km/h N-NO 5,9 C 8,4 C 0,0 km/h
11.08.2016 02:00 7,8 C 84 % 1021,5 hPa 0,0 l/m 0,0 km/h N-NO 5,3 C 7,8 C 0,0 km/h
11.08.2016 03:00 7,9 C 84 % 1022,1 hPa 0,0 l/m 0,0 km/h N-NO 5,4 C 7,9 C 0,0 km/h
11.08.2016 04:00 7,1 C 85 % 1021,9 hPa 0,0 l/m 0,0 km/h N-NO 4,8 C 7,1 C 0,0 km/h
11.08.2016 05:00 6,6 C 85 % 1022,0 hPa 0,5 l/m 0,0 km/h N-NO 4,3 C 6,6 C 0,0 km/h
11.08.2016 06:00 6,8 C 85 % 1022,5 hPa 0,0 l/m 0,0 km/h SO 4,5 C 6,8 C 0,0 km/h
11.08.2016 07:00 8,9 C 82 % 1022,6 hPa 0,0 l/m 0,0 km/h O 6,0 C 8,9 C 0,0 km/h
11.08.2016 08:00 17,3 C 75 % 1023,0 hPa 0,0 l/m 0,0 km/h W 12,8 C 17,3 C 0,0 km/h
11.08.2016 09:00 20,4 C 58 % 1023,1 hPa 0,0 l/m 3,2 km/h W-NW 11,9 C 20,4 C 1,8 km/h
11.08.2016 10:00 21,6 C 53 % 1023,1 hPa 0,0 l/m 0,0 km/h SW 11,6 C 21,6 C 0,0 km/h
11.08.2016 11:00 20,9 C 54 % 1022,8 hPa 0,0 l/m 5,8 km/h NW 11,2 C 20,9 C 3,2 km/h
11.08.2016 12:00 22,1 C 47 % 1022,4 hPa 0,0 l/m 8,4 km/h W-NW 10,3 C 21,4 C 4,7 km/h
11.08.2016 13:00 22,9 C 45 % 1022,1 hPa 0,0 l/m 0,0 km/h S-SW 10,3 C 22,9 C 0,0 km/h
11.08.2016 14:00 24,3 C 42 % 1021,8 hPa 0,0 l/m 0,0 km/h W 10,6 C 24,3 C 0,0 km/h
11.08.2016 15:00 24,3 C 40 % 1021,5 hPa 0,0 l/m 5,8 km/h W-NW 9,8 C 24,3 C 3,2 km/h
11.08.2016 16:00 23,9 C 39 % 1021,3 hPa 0,0 l/m 0,0 km/h W-NW 9,1 C 23,9 C 0,0 km/h
11.08.2016 17:00 25,8 C 40 % 1021,0 hPa 0,0 l/m 18,1 km/h SW 11,2 C 23,9 C 10,1 km/h
11.08.2016 18:00 27,0 C 37 % 1020,9 hPa 0,0 l/m 0,0 km/h W-NW 11,1 C 27,0 C 0,0 km/h
11.08.2016 19:00 18,4 C 52 % 1020,9 hPa 0,0 l/m 0,0 km/h W-NW 8,4 C 18,4 C 0,0 km/h
11.08.2016 20:00 16,5 C 65 % 1021,3 hPa 0,0 l/m 0,0 km/h O-NO 9,9 C 16,5 C 0,0 km/h
11.08.2016 21:00 15,6 C 70 % 1022,2 hPa 0,0 l/m 0,0 km/h O-NO 10,1 C 15,6 C 0,0 km/h
11.08.2016 22:00 15,1 C 72 % 1022,4 hPa 0,0 l/m 0,0 km/h O-NO 10,1 C 15,1 C 0,0 km/h
11.08.2016 23:00 14,1 C 75 % 1022,5 hPa 0,0 l/m 0,0 km/h NO 9,7 C 14,1 C 0,0 km/h
12.08.2016 00:00 13,9 C 77 % 1022,8 hPa 0,0 l/m 0,0 km/h NO 9,9 C 13,9 C 0,0 km/h
12.08.2016 01:00 13,9 C 80 % 1022,6 hPa 0,0 l/m 0,0 km/h SO 10,5 C 13,9 C 0,0 km/h
12.08.2016 02:00 14,4 C 75 % 1022,5 hPa 0,0 l/m 1,3 km/h O-SO 10,0 C 14,4 C 0,7 km/h
12.08.2016 03:00 14,8 C 72 % 1022,3 hPa 0,0 l/m 0,0 km/h SO 9,8 C 14,8 C 0,0 km/h
12.08.2016 04:00 14,1 C 77 % 1022,7 hPa 0,0 l/m 0,0 km/h SO 10,1 C 14,1 C 0,0 km/h
12.08.2016 05:00 14,4 C 78 % 1022,9 hPa 0,0 l/m 0,0 km/h SO 10,6 C 14,4 C 0,0 km/h
12.08.2016 06:00 14,6 C 77 % 1022,9 hPa 0,0 l/m 0,0 km/h NO 10,6 C 14,6 C 0,0 km/h
12.08.2016 07:00 14,6 C 79 % 1023,4 hPa 0,0 l/m 0,0 km/h NO 11,0 C 14,6 C 0,0 km/h
12.08.2016 08:00 15,8 C 79 % 1023,7 hPa 0,0 l/m 0,0 km/h SO 12,2 C 15,8 C 0,0 km/h
12.08.2016 09:00 18,3 C 70 % 1023,7 hPa 0,0 l/m 0,0 km/h S-SW 12,7 C 18,3 C 0,0 km/h
12.08.2016 10:00 20,6 C 58 % 1024,0 hPa 0,0 l/m 6,5 km/h S-SW 12,0 C 20,6 C 3,6 km/h
12.08.2016 11:00 21,4 C 56 % 1024,2 hPa 0,0 l/m 7,1 km/h SW 12,3 C 21,1 C 4,0 km/h
12.08.2016 12:00 24,9 C 51 % 1024,0 hPa 0,0 l/m 6,5 km/h W-SW 14,1 C 24,9 C 3,6 km/h
12.08.2016 13:00 28,5 C 44 % 1023,7 hPa 0,0 l/m 0,0 km/h W-SW 15,0 C 28,5 C 0,0 km/h
12.08.2016 14:00 26,1 C 46 % 1023,4 hPa 0,0 l/m 6,5 km/h W-SW 13,6 C 26,1 C 3,6 km/h
12.08.2016 15:00 28,1 C 44 % 1023,4 hPa 0,0 l/m 5,2 km/h W-SW 14,7 C 28,1 C 2,9 km/h
12.08.2016 16:00 31,5 C 38 % 1023,2 hPa 0,0 l/m 15,6 km/h S-SO 15,4 C 31,2 C 8,6 km/h
12.08.2016 17:00 33,5 C 35 % 1023,0 hPa 0,0 l/m 0,0 km/h SO 15,9 C 33,5 C 0,0 km/h
12.08.2016 18:00 33,9 C 33 % 1023,1 hPa 0,0 l/m 0,0 km/h W-SW 15,3 C 33,9 C 0,0 km/h
12.08.2016 19:00 26,3 C 44 % 1022,7 hPa 0,0 l/m 0,0 km/h NW 13,1 C 26,3 C 0,0 km/h
12.08.2016 20:00 19,6 C 64 % 1023,0 hPa 0,0 l/m 0,0 km/h O-NO 12,6 C 19,6 C 0,0 km/h
12.08.2016 21:00 17,6 C 72 % 1023,3 hPa 0,0 l/m 0,0 km/h SO 12,5 C 17,6 C 0,0 km/h
12.08.2016 22:00 16,1 C 76 % 1023,2 hPa 0,0 l/m 3,2 km/h SO 11,9 C 16,1 C 1,8 km/h
12.08.2016 23:00 15,5 C 79 % 1023,0 hPa 0,0 l/m 0,0 km/h O-NO 11,9 C 15,5 C 0,0 km/h
13.08.2016 00:00 15,2 C 81 % 1023,1 hPa 0,0 l/m 0,0 km/h O-NO 12,0 C 15,2 C 0,0 km/h
13.08.2016 01:00 14,6 C 82 % 1023,0 hPa 0,0 l/m 0,0 km/h O-SO 11,6 C 14,6 C 0,0 km/h
13.08.2016 02:00 14,1 C 83 % 1022,7 hPa 0,0 l/m 6,5 km/h SO 11,3 C 14,1 C 3,6 km/h
13.08.2016 03:00 13,3 C 83 % 1022,7 hPa 0,0 l/m 0,0 km/h O-NO 10,5 C 13,3 C 0,0 km/h
13.08.2016 04:00 12,8 C 84 % 1022,3 hPa 0,0 l/m 0,0 km/h O-SO 10,2 C 12,8 C 0,0 km/h
13.08.2016 05:00 12,5 C 84 % 1022,1 hPa 0,0 l/m 0,0 km/h SO 9,9 C 12,5 C 0,0 km/h
13.08.2016 06:00 11,9 C 84 % 1022,1 hPa 0,0 l/m 0,0 km/h SO 9,3 C 11,9 C 0,0 km/h
13.08.2016 07:00 14,5 C 82 % 1022,3 hPa 0,0 l/m 0,0 km/h NO 11,5 C 14,5 C 0,0 km/h
13.08.2016 08:00 24,6 C 64 % 1022,2 hPa 0,0 l/m 0,0 km/h NO 17,3 C 24,6 C 0,0 km/h
13.08.2016 09:00 27,6 C 53 % 1022,5 hPa 0,0 l/m 0,0 km/h W 17,1 C 27,6 C 0,0 km/h
13.08.2016 10:00 28,9 C 48 % 1022,3 hPa 0,0 l/m 0,0 km/h W-SW 16,8 C 28,9 C 0,0 km/h
13.08.2016 11:00 28,5 C 46 % 1022,0 hPa 0,0 l/m 0,0 km/h N 15,7 C 28,5 C 0,0 km/h
13.08.2016 12:00 29,3 C 45 % 1021,3 hPa 0,0 l/m 3,2 km/h N-NO 16,1 C 29,3 C 1,8 km/h
13.08.2016 13:00 30,9 C 41 % 1021,2 hPa 0,0 l/m 0,0 km/h W-SW 16,1 C 30,9 C 0,0 km/h
13.08.2016 14:00 32,3 C 38 % 1020,7 hPa 0,0 l/m 4,5 km/h W 16,1 C 32,3 C 2,5 km/h
13.08.2016 15:00 32,4 C 38 % 1020,2 hPa 0,0 l/m 3,9 km/h W-NW 16,2 C 32,4 C 2,2 km/h
13.08.2016 16:00 35,4 C 35 % 1019,7 hPa 0,0 l/m 0,0 km/h NW 17,6 C 35,4 C 0,0 km/h
13.08.2016 17:00 37,4 C 31 % 1019,5 hPa 0,0 l/m 0,0 km/h NO 17,4 C 37,4 C 0,0 km/h
13.08.2016 18:00 38,1 C 30 % 1019,3 hPa 0,0 l/m 0,0 km/h N-NO 17,4 C 38,1 C 0,0 km/h
13.08.2016 19:00 28,9 C 44 % 1019,2 hPa 0,0 l/m 0,0 km/h N-NO 15,4 C 28,9 C 0,0 km/h
13.08.2016 20:00 22,3 C 63 % 1019,3 hPa 0,0 l/m 0,0 km/h N-NO 14,9 C 22,3 C 0,0 km/h
13.08.2016 21:00 19,8 C 71 % 1019,8 hPa 0,0 l/m 0,0 km/h SO 14,4 C 19,8 C 0,0 km/h
13.08.2016 22:00 18,6 C 77 % 1020,0 hPa 0,0 l/m 0,0 km/h N-NO 14,5 C 18,6 C 0,0 km/h
13.08.2016 23:00 18,2 C 78 % 1020,2 hPa 0,0 l/m 0,0 km/h N-NO 14,3 C 18,2 C 0,0 km/h
14.08.2016 00:00 17,1 C 80 % 1020,2 hPa 0,0 l/m 0,0 km/h N-NO 13,6 C 17,1 C 0,0 km/h
14.08.2016 01:00 16,9 C 81 % 1020,2 hPa 0,0 l/m 0,0 km/h O-SO 13,6 C 16,9 C 0,0 km/h
14.08.2016 02:00 16,3 C 81 % 1019,8 hPa 0,0 l/m 0,0 km/h SO 13,0 C 16,3 C 0,0 km/h
14.08.2016 03:00 15,8 C 83 % 1019,6 hPa 0,0 l/m 0,0 km/h O-SO 12,9 C 15,8 C 0,0 km/h
14.08.2016 04:00 14,7 C 83 % 1019,5 hPa 0,0 l/m 0,0 km/h O 11,8 C 14,7 C 0,0 km/h
14.08.2016 05:00 14,1 C 83 % 1019,7 hPa 0,0 l/m 0,0 km/h O 11,3 C 14,1 C 0,0 km/h
14.08.2016 06:00 14,1 C 83 % 1019,8 hPa 0,0 l/m 0,0 km/h O-SO 11,3 C 14,1 C 0,0 km/h
14.08.2016 07:00 16,1 C 82 % 1019,9 hPa 0,0 l/m 0,0 km/h SO 13,0 C 16,1 C 0,0 km/h
14.08.2016 08:00 25,1 C 67 % 1019,8 hPa 0,0 l/m 11,7 km/h NO 18,5 C 24,0 C 6,5 km/h
14.08.2016 09:00 30,4 C 52 % 1019,7 hPa 0,0 l/m 0,0 km/h N-NO 19,4 C 30,4 C 0,0 km/h
14.08.2016 10:00 30,6 C 45 % 1019,7 hPa 0,0 l/m 0,0 km/h N 17,3 C 30,6 C 0,0 km/h
14.08.2016 11:00 30,3 C 48 % 1019,4 hPa 0,0 l/m 0,0 km/h N-NO 18,0 C 30,3 C 0,0 km/h
14.08.2016 12:00 32,3 C 41 % 1019,1 hPa 0,0 l/m 0,0 km/h S-SO 17,3 C 32,3 C 0,0 km/h
14.08.2016 13:00 33,3 C 39 % 1018,7 hPa 0,0 l/m 0,0 km/h W 17,4 C 33,3 C 0,0 km/h
14.08.2016 14:00 34,2 C 37 % 1018,1 hPa 0,0 l/m 0,0 km/h NW 17,4 C 34,2 C 0,0 km/h
14.08.2016 15:00 33,9 C 39 % 1017,9 hPa 0,0 l/m 0,0 km/h N 18,0 C 33,9 C 0,0 km/h
14.08.2016 16:00 32,6 C 38 % 1017,6 hPa 0,0 l/m 0,0 km/h N 16,4 C 32,6 C 0,0 km/h
14.08.2016 17:00 31,8 C 41 % 1017,3 hPa 0,0 l/m 5,2 km/h N-NO 16,9 C 31,8 C 2,9 km/h
14.08.2016 18:00 28,2 C 51 % 1017,2 hPa 0,0 l/m 0,0 km/h N-NO 17,1 C 28,2 C 0,0 km/h
14.08.2016 19:00 26,8 C 55 % 1017,3 hPa 0,0 l/m 0,0 km/h N-NO 17,0 C 26,8 C 0,0 km/h
14.08.2016 20:00 23,4 C 65 % 1017,7 hPa 0,0 l/m 0,0 km/h N-NO 16,4 C 23,4 C 0,0 km/h
14.08.2016 21:00 20,8 C 71 % 1017,9 hPa 0,0 l/m 0,0 km/h SO 15,3 C 20,8 C 0,0 km/h
14.08.2016 22:00 20,5 C 75 % 1018,2 hPa 0,0 l/m 0,0 km/h SO 15,9 C 20,5 C 0,0 km/h
14.08.2016 23:00 20,3 C 76 % 1018,2 hPa 0,0 l/m 0,0 km/h O-SO 15,9 C 20,3 C 0,0 km/h
Min-Datum _ 11.08.16 13.08.16 08.08.16 - 08.08.16 - 11.08.16 11.08.16 08.08.16
_ Min-Zeit 05:56 18:56 17:56 - 00:56 - 05:56 05:56 00:56
Minimum _ 6,6 C 30 % 1016,7 hPa - 0,0 km/h - 4,3 C 6,6 C 0,0 km/h
Max-Datum _ 13.08.16 11.08.16 12.08.16 10.08.16 11.08.16 - 14.08.16 13.08.16 11.08.16
_ Max-Zeit 18:56 04:56 11:56 20:56 17:56 - 09:56 18:56 17:56
Maximum _ 38,1 C 85 % 1024,2 hPa 2,1 l/m 18,1 km/h
SW
- 19,4 C 38,1 C 10,1 km/h
SW
Durchschnitt _ 20,3 C 65 % 1020,2 hPa #4,7 l/m 1,2 km/h SO 12,6 C 20,3 C 0,7 km/h
www.sexauwetter.de